createdAt,value
2022-07-29T00:02:50.602Z,23.91
2022-07-29T00:05:54.219Z,23.92
2022-07-29T00:09:00.905Z,23.95
2022-07-29T00:12:03.969Z,23.98
2022-07-29T00:15:07.104Z,23.89
2022-07-29T00:18:09.987Z,23.93
2022-07-29T00:21:12.606Z,23.81
2022-07-29T00:24:15.860Z,23.80
2022-07-29T00:27:19.076Z,23.80
2022-07-29T00:30:22.013Z,23.92
2022-07-29T00:33:24.784Z,23.88
2022-07-29T00:36:27.640Z,23.91
2022-07-29T00:39:30.428Z,23.85
2022-07-29T00:42:45.351Z,23.92
2022-07-29T00:45:48.221Z,23.82
2022-07-29T00:48:51.161Z,23.89
2022-07-29T00:51:54.435Z,23.91
2022-07-29T00:54:58.122Z,23.87
2022-07-29T00:58:01.415Z,23.88
2022-07-29T01:01:04.357Z,23.82
2022-07-29T01:04:07.257Z,23.73
2022-07-29T01:07:10.651Z,23.72
2022-07-29T01:10:14.647Z,23.74
2022-07-29T01:13:17.629Z,23.59
2022-07-29T01:16:32.119Z,23.63
2022-07-29T01:19:53.879Z,23.55
2022-07-29T01:23:37.915Z,23.50
2022-07-29T01:26:46.931Z,23.42
2022-07-29T01:29:58.403Z,23.38
2022-07-29T01:33:10.503Z,23.32
2022-07-29T01:36:17.682Z,23.27
2022-07-29T01:39:33.574Z,23.19
2022-07-29T01:42:45.773Z,23.14
2022-07-29T01:46:01.357Z,23.11
2022-07-29T01:49:16.509Z,23.03
2022-07-29T01:52:42.549Z,23.00
2022-07-29T01:55:46.882Z,22.91
2022-07-29T01:58:50.397Z,22.91
2022-07-29T02:01:55.029Z,22.81
2022-07-29T02:04:58.441Z,22.68
2022-07-29T02:08:02.330Z,22.62
2022-07-29T02:11:05.535Z,22.61
2022-07-29T02:14:08.509Z,22.54
2022-07-29T02:17:12.187Z,22.51
2022-07-29T02:20:14.930Z,22.49
2022-07-29T02:23:22.559Z,22.40
2022-07-29T02:26:26.613Z,22.33
2022-07-29T02:29:31.408Z,22.12
2022-07-29T02:32:36.874Z,22.19
2022-07-29T02:35:41.834Z,22.09
2022-07-29T02:38:58.690Z,22.01
2022-07-29T02:42:08.087Z,21.98
2022-07-29T02:45:11.132Z,21.93
2022-07-29T02:48:16.336Z,21.84
2022-07-29T02:51:44.504Z,21.79
2022-07-29T02:54:55.042Z,21.76
2022-07-29T02:58:09.707Z,21.73
2022-07-29T03:01:19.442Z,21.69
2022-07-29T03:04:26.052Z,21.61
2022-07-29T03:07:29.021Z,21.60
2022-07-29T03:10:32.519Z,21.55
2022-07-29T03:13:36.121Z,21.35
2022-07-29T03:16:41.269Z,21.37
2022-07-29T03:19:44.417Z,21.38
2022-07-29T03:22:49.803Z,21.33
2022-07-29T03:25:52.748Z,21.33
2022-07-29T03:28:55.878Z,21.27
2022-07-29T03:31:58.946Z,21.19
2022-07-29T03:35:01.925Z,21.11
2022-07-29T03:38:05.267Z,21.13
2022-07-29T03:41:11.041Z,21.08
2022-07-29T03:44:15.171Z,21.12
2022-07-29T03:47:21.478Z,21.13
2022-07-29T03:50:26.350Z,21.22
2022-07-29T03:53:29.593Z,21.17
2022-07-29T03:56:35.938Z,21.15
2022-07-29T03:59:39.008Z,21.25
2022-07-29T04:02:46.033Z,21.22
2022-07-29T04:06:09.172Z,21.29
2022-07-29T04:09:12.068Z,21.37
2022-07-29T04:12:14.934Z,21.41
2022-07-29T04:15:17.508Z,21.44
2022-07-29T04:18:20.395Z,21.48
2022-07-29T04:21:23.080Z,21.48
2022-07-29T04:24:26.243Z,21.48
2022-07-29T04:27:28.800Z,21.41
2022-07-29T04:30:32.887Z,21.44
2022-07-29T04:33:35.508Z,21.57
2022-07-29T04:36:38.826Z,21.62
2022-07-29T04:39:41.410Z,21.65
2022-07-29T04:42:47.207Z,21.65
2022-07-29T04:45:50.651Z,21.73
2022-07-29T04:48:53.632Z,21.73
2022-07-29T04:51:56.228Z,21.80
2022-07-29T04:54:59.032Z,21.88
2022-07-29T04:58:01.611Z,21.92
2022-07-29T05:01:05.534Z,21.94
2022-07-29T05:04:08.113Z,22.06
2022-07-29T05:07:11.047Z,22.21
2022-07-29T05:10:13.652Z,22.25
2022-07-29T05:13:17.132Z,22.34
2022-07-29T05:16:19.843Z,22.44
2022-07-29T05:19:22.762Z,22.55
2022-07-29T05:22:25.481Z,22.66
2022-07-29T05:25:42.931Z,22.79
2022-07-29T05:28:47.097Z,22.84
2022-07-29T05:31:49.988Z,22.97
2022-07-29T05:34:52.522Z,23.11
2022-07-29T05:37:55.368Z,23.26
2022-07-29T05:40:59.688Z,23.42
2022-07-29T05:44:03.201Z,23.55
2022-07-29T05:47:07.479Z,23.74
2022-07-29T05:50:10.442Z,23.90
2022-07-29T05:53:18.971Z,24.09
2022-07-29T05:56:22.986Z,24.29
2022-07-29T05:59:30.131Z,24.45
2022-07-29T06:02:33.411Z,24.64
2022-07-29T06:05:36.395Z,24.80
2022-07-29T06:08:39.555Z,24.90
2022-07-29T06:11:42.653Z,25.05
2022-07-29T06:14:45.176Z,25.18
2022-07-29T06:18:00.510Z,25.39
2022-07-29T06:21:09.628Z,25.46
2022-07-29T06:24:13.881Z,25.54
2022-07-29T06:27:17.342Z,25.72
2022-07-29T06:30:20.304Z,25.70
2022-07-29T06:33:22.871Z,25.84
2022-07-29T06:36:26.051Z,26.03
2022-07-29T06:39:29.018Z,26.07
2022-07-29T06:42:32.114Z,26.18
2022-07-29T06:45:35.519Z,26.22
2022-07-29T06:48:39.331Z,26.34
2022-07-29T06:51:42.207Z,26.48
2022-07-29T06:54:49.040Z,26.53
2022-07-29T06:57:51.672Z,26.49
2022-07-29T07:00:55.176Z,26.53
2022-07-29T07:03:57.782Z,26.75
2022-07-29T07:07:00.650Z,26.69
2022-07-29T07:10:04.315Z,26.72
2022-07-29T07:13:07.589Z,26.93
2022-07-29T07:16:10.144Z,27.12
2022-07-29T07:19:13.001Z,27.24
2022-07-29T07:22:16.794Z,27.33
2022-07-29T07:25:19.732Z,27.34
2022-07-29T07:28:24.588Z,27.54
2022-07-29T07:31:27.982Z,27.64
2022-07-29T07:34:31.172Z,27.90
2022-07-29T07:37:34.426Z,27.86
2022-07-29T07:40:36.991Z,27.80
2022-07-29T07:43:39.859Z,27.90
2022-07-29T07:46:42.403Z,28.09
2022-07-29T07:49:46.018Z,28.19
2022-07-29T07:52:53.531Z,28.47
2022-07-29T07:56:12.863Z,28.63
2022-07-29T07:59:15.768Z,28.71
2022-07-29T08:02:18.789Z,28.88
2022-07-29T08:05:21.824Z,29.06
2022-07-29T08:08:24.461Z,29.04
2022-07-29T08:11:27.497Z,29.13
2022-07-29T08:14:31.828Z,29.30
2022-07-29T08:17:35.395Z,29.34
2022-07-29T08:20:39.949Z,29.49
2022-07-29T08:23:59.736Z,29.63
2022-07-29T08:27:12.853Z,29.80
2022-07-29T08:30:27.720Z,30.08
2022-07-29T08:33:30.275Z,29.97
2022-07-29T08:36:34.223Z,30.27
2022-07-29T08:39:36.758Z,30.40
2022-07-29T08:42:39.654Z,30.62
2022-07-29T08:45:51.115Z,30.72
2022-07-29T08:48:54.326Z,31.03
2022-07-29T08:51:58.764Z,31.29
2022-07-29T08:55:02.056Z,31.40
2022-07-29T08:58:05.938Z,31.36
2022-07-29T09:01:12.406Z,31.62
2022-07-29T09:04:16.705Z,31.85
2022-07-29T09:07:19.966Z,31.65
2022-07-29T09:10:22.664Z,31.78
2022-07-29T09:13:26.005Z,31.81
2022-07-29T09:16:54.960Z,32.14
2022-07-29T09:20:09.648Z,32.45
2022-07-29T09:23:12.335Z,32.76
2022-07-29T09:26:30.455Z,33.03
2022-07-29T09:29:36.226Z,33.29
2022-07-29T09:33:03.588Z,33.37
2022-07-29T09:36:06.878Z,33.58
2022-07-29T09:39:10.125Z,33.72
2022-07-29T09:42:14.077Z,33.75
2022-07-29T09:45:33.871Z,33.78
2022-07-29T09:48:36.423Z,33.98
2022-07-29T09:51:39.759Z,34.09
2022-07-29T09:54:42.296Z,33.97
2022-07-29T09:57:45.860Z,33.96
2022-07-29T10:00:49.799Z,34.05
2022-07-29T10:03:53.542Z,34.36
2022-07-29T10:07:04.415Z,34.45
2022-07-29T10:10:08.500Z,34.60
2022-07-29T10:13:16.395Z,34.51
2022-07-29T10:16:19.653Z,34.56
2022-07-29T10:19:22.404Z,34.74
2022-07-29T10:22:51.565Z,35.06
2022-07-29T10:25:47.830Z,35.20
2022-07-29T10:28:50.673Z,34.85
2022-07-29T10:31:53.385Z,34.61
2022-07-29T10:35:21.050Z,34.49
2022-07-29T10:38:52.194Z,34.47
2022-07-29T10:42:17.030Z,34.45
2022-07-29T10:45:23.555Z,34.26
2022-07-29T10:48:26.678Z,34.52
2022-07-29T10:52:00.818Z,34.37
2022-07-29T10:55:05.798Z,34.34
2022-07-29T10:58:18.885Z,34.29
2022-07-29T11:01:37.456Z,34.43
2022-07-29T11:04:44.670Z,34.65
2022-07-29T11:08:20.389Z,34.70
2022-07-29T11:11:29.777Z,34.74
2022-07-29T11:14:57.809Z,34.13
2022-07-29T11:18:01.634Z,34.46
2022-07-29T11:21:04.548Z,34.21
2022-07-29T11:27:54.276Z,34.31
2022-07-29T11:34:33.263Z,34.23
2022-07-29T11:37:42.617Z,33.89
2022-07-29T11:41:20.951Z,33.77
2022-07-29T11:45:08.791Z,33.93
2022-07-29T11:48:31.483Z,33.88
2022-07-29T11:51:34.843Z,33.74
2022-07-29T11:58:04.317Z,34.11
2022-07-29T12:01:07.411Z,34.16
2022-07-29T12:04:10.269Z,34.60
2022-07-29T12:07:01.470Z,34.27
2022-07-29T12:07:15.514Z,34.57
2022-07-29T12:10:19.772Z,34.72
2022-07-29T12:13:37.229Z,34.79
2022-07-29T12:16:40.756Z,34.52
2022-07-29T12:19:44.765Z,34.81
2022-07-29T12:22:49.488Z,34.69
2022-07-29T12:25:52.160Z,34.89
2022-07-29T12:28:56.935Z,34.98
2022-07-29T12:32:00.603Z,34.90
2022-07-29T12:35:10.490Z,34.88
2022-07-29T12:38:14.012Z,34.88
2022-07-29T12:41:16.956Z,35.24
2022-07-29T12:44:19.505Z,35.40
2022-07-29T12:47:22.567Z,35.30
2022-07-29T12:50:26.655Z,35.41
2022-07-29T12:53:30.017Z,35.46
2022-07-29T12:56:42.642Z,35.33
2022-07-29T12:59:46.519Z,35.33
2022-07-29T13:02:56.486Z,35.78
2022-07-29T13:05:59.692Z,35.62
2022-07-29T13:09:19.888Z,35.72
2022-07-29T13:12:23.668Z,36.02
2022-07-29T13:15:26.173Z,36.35
2022-07-29T13:18:33.044Z,36.54
2022-07-29T13:21:37.169Z,36.70
2022-07-29T13:24:57.181Z,36.85
2022-07-29T13:28:00.788Z,36.90
2022-07-29T13:31:04.576Z,36.96
2022-07-29T13:34:07.146Z,37.05
2022-07-29T13:37:10.580Z,37.15
2022-07-29T13:40:14.874Z,37.18
2022-07-29T13:43:17.759Z,37.14
2022-07-29T13:46:20.474Z,37.33
2022-07-29T13:49:23.913Z,37.05
2022-07-29T13:52:26.595Z,37.32
2022-07-29T13:55:29.552Z,37.22
2022-07-29T13:58:32.297Z,37.27
2022-07-29T14:01:36.346Z,37.35
2022-07-29T14:04:39.827Z,37.33
2022-07-29T14:07:42.402Z,37.32
2022-07-29T14:10:45.334Z,37.28
2022-07-29T14:13:47.921Z,37.32
2022-07-29T14:16:52.476Z,37.44
2022-07-29T14:19:55.928Z,37.49
2022-07-29T14:23:01.692Z,37.48
2022-07-29T14:26:04.246Z,37.53
2022-07-29T14:29:11.719Z,37.64
2022-07-29T14:32:15.950Z,37.67
2022-07-29T14:35:18.917Z,37.69
2022-07-29T14:38:21.605Z,37.25
2022-07-29T14:41:29.778Z,37.26
2022-07-29T14:44:32.491Z,37.42
2022-07-29T14:47:35.726Z,37.08
2022-07-29T14:50:38.928Z,37.07
2022-07-29T14:53:41.775Z,36.70
2022-07-29T14:56:46.300Z,36.50
2022-07-29T14:59:49.995Z,36.64
2022-07-29T15:03:01.985Z,36.70
2022-07-29T15:06:05.527Z,36.74
2022-07-29T15:09:08.105Z,36.46
2022-07-29T15:12:11.519Z,36.22
2022-07-29T15:15:14.092Z,36.03
2022-07-29T15:18:17.067Z,35.86
2022-07-29T15:21:28.673Z,35.50
2022-07-29T15:24:31.840Z,35.31
2022-07-29T15:27:34.437Z,35.28
2022-07-29T15:30:41.798Z,35.10
2022-07-29T15:33:44.401Z,35.21
2022-07-29T15:36:52.787Z,35.32
2022-07-29T15:39:59.916Z,35.28
2022-07-29T15:43:06.787Z,35.32
2022-07-29T15:46:28.204Z,35.31
2022-07-29T15:49:47.644Z,35.19
2022-07-29T15:52:51.942Z,34.96
2022-07-29T15:55:54.751Z,34.87
2022-07-29T15:58:57.909Z,34.93
2022-07-29T16:02:00.955Z,35.07
2022-07-29T16:05:04.172Z,34.87
2022-07-29T16:08:11.839Z,34.82
2022-07-29T16:11:14.727Z,34.71
2022-07-29T16:14:18.226Z,34.61
2022-07-29T16:17:21.201Z,34.61
2022-07-29T16:20:24.002Z,34.57
2022-07-29T16:23:26.860Z,34.62
2022-07-29T16:26:29.443Z,34.66
2022-07-29T16:29:32.599Z,34.68
2022-07-29T16:32:35.283Z,34.59
2022-07-29T16:35:40.387Z,34.46
2022-07-29T16:38:47.321Z,34.33
2022-07-29T16:41:50.422Z,34.32
2022-07-29T16:44:53.010Z,34.25
2022-07-29T16:48:00.146Z,34.20
2022-07-29T16:51:04.205Z,34.12
2022-07-29T16:54:08.700Z,34.07
2022-07-29T16:57:11.862Z,33.89
2022-07-29T17:00:16.651Z,33.88
2022-07-29T17:03:19.523Z,33.77
2022-07-29T17:06:22.447Z,33.69
2022-07-29T17:09:25.177Z,33.58
2022-07-29T17:12:28.045Z,33.51
2022-07-29T17:15:30.685Z,33.45
2022-07-29T17:18:39.374Z,33.36
2022-07-29T17:21:48.815Z,33.20
2022-07-29T17:24:52.189Z,33.09
2022-07-29T17:28:00.578Z,32.98
2022-07-29T17:31:04.023Z,32.91
2022-07-29T17:34:07.453Z,32.77
2022-07-29T17:37:11.914Z,32.62
2022-07-29T17:40:14.540Z,32.47
2022-07-29T17:43:17.722Z,32.31
2022-07-29T17:46:22.246Z,32.15
2022-07-29T17:49:25.194Z,32.06
2022-07-29T17:52:27.779Z,31.91
2022-07-29T17:55:30.684Z,31.74
2022-07-29T17:58:34.105Z,31.56
2022-07-29T18:01:38.233Z,31.44
2022-07-29T18:04:41.151Z,31.26
2022-07-29T18:07:43.709Z,31.18
2022-07-29T18:10:46.618Z,30.99
2022-07-29T18:13:49.144Z,30.72
2022-07-29T18:16:52.009Z,30.63
2022-07-29T18:19:54.566Z,30.46
2022-07-29T18:22:57.473Z,30.28
2022-07-29T18:26:00.098Z,30.15
2022-07-29T18:29:02.960Z,30.02
2022-07-29T18:32:05.964Z,29.78
2022-07-29T18:35:09.231Z,29.49
2022-07-29T18:38:11.787Z,29.45
2022-07-29T18:41:14.621Z,29.36
2022-07-29T18:44:18.207Z,29.23
2022-07-29T18:47:21.111Z,29.16
2022-07-29T18:50:29.661Z,29.10
2022-07-29T18:53:32.916Z,29.03
2022-07-29T18:56:39.516Z,28.94
2022-07-29T18:59:43.394Z,28.95
2022-07-29T19:02:46.079Z,28.81
2022-07-29T19:05:49.516Z,28.63
2022-07-29T19:08:52.519Z,28.69
2022-07-29T19:11:58.004Z,28.56
2022-07-29T19:15:03.774Z,28.51
2022-07-29T19:18:07.213Z,28.72
2022-07-29T19:21:10.226Z,28.68
2022-07-29T19:24:15.555Z,28.63
2022-07-29T19:27:18.930Z,28.75
2022-07-29T19:30:22.185Z,28.58
2022-07-29T19:33:24.751Z,28.63
2022-07-29T19:36:27.629Z,28.55
2022-07-29T19:39:35.384Z,28.53
2022-07-29T19:42:38.544Z,28.53
2022-07-29T19:45:41.248Z,28.58
2022-07-29T19:48:45.021Z,28.45
2022-07-29T19:51:47.599Z,28.40
2022-07-29T19:54:50.644Z,28.27
2022-07-29T19:57:53.287Z,28.22
2022-07-29T20:00:56.204Z,28.20
2022-07-29T20:03:59.139Z,28.06
2022-07-29T20:07:02.149Z,28.09
2022-07-29T20:10:06.868Z,28.02
2022-07-29T20:13:09.573Z,28.12
2022-07-29T20:16:12.664Z,28.01
2022-07-29T20:19:15.649Z,27.93
2022-07-29T20:22:21.175Z,27.81
2022-07-29T20:25:24.371Z,27.81
2022-07-29T20:28:27.678Z,27.87
2022-07-29T20:31:30.635Z,27.70
2022-07-29T20:34:33.646Z,27.61
2022-07-29T20:37:52.107Z,27.61
2022-07-29T20:40:58.941Z,27.62
2022-07-29T20:44:02.657Z,27.55
2022-07-29T20:47:05.650Z,27.45
2022-07-29T20:50:10.134Z,27.42
2022-07-29T20:53:13.643Z,27.19
2022-07-29T20:56:16.195Z,27.11
2022-07-29T20:59:19.211Z,26.99
2022-07-29T21:02:21.751Z,26.95
2022-07-29T21:05:24.783Z,26.78
2022-07-29T21:08:27.703Z,26.69
2022-07-29T21:11:44.530Z,26.64
2022-07-29T21:14:48.131Z,26.65
2022-07-29T21:17:59.435Z,26.72
2022-07-29T21:21:02.051Z,26.58
2022-07-29T21:24:07.703Z,26.55
2022-07-29T21:27:32.986Z,26.61
2022-07-29T21:30:36.778Z,26.62
2022-07-29T21:33:44.992Z,26.58
2022-07-29T21:36:48.900Z,26.61
2022-07-29T21:39:51.787Z,26.57
2022-07-29T21:42:54.706Z,26.50
2022-07-29T21:45:58.187Z,26.33
2022-07-29T21:49:01.100Z,26.28
2022-07-29T21:52:04.635Z,26.16
2022-07-29T21:55:07.967Z,26.03
2022-07-29T21:58:15.373Z,26.04
2022-07-29T22:01:18.361Z,26.00
2022-07-29T22:04:21.577Z,25.94
2022-07-29T22:07:24.119Z,25.85
2022-07-29T22:10:28.749Z,25.86
2022-07-29T22:13:31.700Z,25.84
2022-07-29T22:16:34.726Z,25.71
2022-07-29T22:19:37.275Z,25.68
2022-07-29T22:22:40.499Z,25.58
2022-07-29T22:25:43.087Z,25.41
2022-07-29T22:28:46.288Z,25.26
2022-07-29T22:31:48.985Z,25.28
2022-07-29T22:34:51.973Z,25.29
2022-07-29T22:37:54.693Z,25.28
2022-07-29T22:41:01.551Z,25.25
2022-07-29T22:44:06.000Z,25.18
2022-07-29T22:47:08.903Z,25.16
2022-07-29T22:50:11.609Z,25.11
2022-07-29T22:53:14.466Z,25.05
2022-07-29T22:56:17.992Z,25.09
2022-07-29T22:59:20.936Z,25.07
2022-07-29T23:02:23.504Z,25.02
2022-07-29T23:05:26.453Z,24.93
2022-07-29T23:08:28.984Z,24.87
2022-07-29T23:11:31.848Z,24.74
2022-07-29T23:14:39.916Z,24.70
2022-07-29T23:17:42.846Z,24.68
2022-07-29T23:20:45.498Z,24.70
2022-07-29T23:23:49.187Z,24.63
2022-07-29T23:26:51.719Z,24.54
2022-07-29T23:29:54.545Z,24.44
2022-07-29T23:32:57.180Z,24.40
2022-07-29T23:35:59.975Z,24.34
2022-07-29T23:39:02.562Z,24.25
2022-07-29T23:42:05.486Z,24.19
2022-07-29T23:45:09.040Z,24.13
2022-07-29T23:48:12.045Z,24.08
2022-07-29T23:51:14.531Z,23.99
2022-07-29T23:54:17.396Z,23.89
2022-07-29T23:57:22.899Z,23.87
